Terminal Aerodrome Forecast
Issued by NWS

Home | Current Version | Previous Version | Text Only | Print | Product List | Glossary On
Versions: 1 2 3 4 5 6 7 8 9 10 11 12 13 14 15 16 17 18 19 20 21 22
000
FTUS45 KGJT 290521
TAFTEX
TAF
KTEX 290521Z 2906/3006 28007G20KT 2SM -SN SCT003 BKN009 OVC013
     FM291000 35009KT 4SM -SN BR OVC015
     FM291300 32008KT P6SM BKN025
     FM291700 36008KT P6SM SCT050 SCT130
     FM292200 35007KT P6SM FEW200
     FM300400 08005KT P6SM FEW200=

USA.gov is the U.S. government's official web portal to all federal, state and local government web resources and services.